Time;durP1;ratioP1;P1;durP2;ratioP2;P2;SDS_P1;SDS_P2;PMS_P1;PMS_P2;Temp;Humidity;BMP_temperature;BMP_pressure;BME280_temperature;BME280_humidity;BME280_pressure;Samples;Min_cycle;Max_cycle;Signal;HPM_P1;HPM_P2
2022/11/11 00:00:58;;;;;;;7.43;3.30;;;10.90;99.90;;;;;;5075537;28;20471;-65
2022/11/11 00:03:26;;;;;;;5.70;3.00;;;10.80;99.90;;;;;;5075255;28;20423;-61
2022/11/11 00:05:53;;;;;;;5.60;2.17;;;10.80;99.90;;;;;;5069082;28;20908;-64
2022/11/11 00:08:20;;;;;;;4.10;2.60;;;10.80;99.90;;;;;;5068115;28;20579;-62
2022/11/11 00:10:48;;;;;;;4.50;2.10;;;10.80;99.90;;;;;;5075181;28;20416;-60
2022/11/11 00:13:22;;;;;;;5.57;2.30;;;10.80;99.90;;;;;;5061935;28;20447;-59
2022/11/11 00:15:48;;;;;;;5.23;1.63;;;10.70;99.90;;;;;;5069727;28;20423;-61
2022/11/11 00:27:12;;;;;;;4.13;2.50;;;10.70;99.90;;;;;;5033386;28;20451;-60
2022/11/11 00:29:46;;;;;;;6.93;2.73;;;10.70;99.90;;;;;;5074768;28;20477;-61
2022/11/11 00:32:26;;;;;;;11.03;2.40;;;10.70;99.90;;;;;;5075291;28;20420;-57
2022/11/11 00:37:39;;;;;;;4.10;2.27;;;10.70;99.90;;;;;;5075405;28;20414;-61
2022/11/11 00:40:08;;;;;;;3.27;2.43;;;10.60;99.90;;;;;;5072750;28;20509;-61
2022/11/11 00:42:36;;;;;;;5.13;1.87;;;10.70;99.90;;;;;;5065973;28;20443;-59
2022/11/11 00:45:10;;;;;;;6.17;2.00;;;10.60;99.90;;;;;;5074592;28;20468;-61
2022/11/11 00:53:18;;;;;;;2.97;2.40;;;10.50;99.90;;;;;;5074634;28;20399;-61
2022/11/11 00:55:45;;;;;;;2.80;2.20;;;10.50;99.90;;;;;;5075045;28;20442;-61
2022/11/11 00:58:15;;;;;;;7.33;2.60;;;10.40;99.90;;;;;;5074640;28;20455;-61
2022/11/11 01:00:42;;;;;;;2.73;2.53;;;10.40;99.90;;;;;;5073608;28;20467;-60
2022/11/11 01:03:10;;;;;;;2.77;2.20;;;10.30;99.90;;;;;;5063969;28;20499;-60
2022/11/11 01:05:38;;;;;;;4.00;2.43;;;10.30;99.90;;;;;;5074913;28;20595;-59
2022/11/11 01:08:05;;;;;;;2.80;2.30;;;10.30;99.90;;;;;;5073937;28;20508;-60
2022/11/11 01:10:40;;;;;;;2.77;2.00;;;10.30;99.90;;;;;;5075032;28;20456;-59
2022/11/11 01:13:16;;;;;;;3.60;2.40;;;10.30;99.90;;;;;;5075443;28;20434;-60
2022/11/11 01:15:47;;;;;;;9.60;2.13;;;10.30;99.90;;;;;;5078759;28;20427;-60
2022/11/11 01:18:17;;;;;;;5.23;2.60;;;10.20;99.90;;;;;;5079597;28;20419;-61
2022/11/11 01:20:48;;;;;;;4.43;2.70;;;10.20;99.90;;;;;;5078580;28;20463;-62
2022/11/11 01:23:22;;;;;;;6.87;3.13;;;10.20;99.90;;;;;;5079038;28;20539;-60
2022/11/11 01:25:51;;;;;;;7.53;3.67;;;10.30;99.90;;;;;;5075809;28;20921;-62
2022/11/11 01:28:21;;;;;;;8.40;3.83;;;10.30;99.90;;;;;;5069633;28;20435;-62
2022/11/11 01:30:50;;;;;;;4.83;2.30;;;10.40;99.90;;;;;;5078805;28;20419;-61
2022/11/11 01:33:17;;;;;;;5.63;2.40;;;10.40;99.90;;;;;;5071155;28;20432;-61
2022/11/11 01:35:44;;;;;;;6.07;2.50;;;10.40;99.90;;;;;;5073543;28;20471;-63
2022/11/11 01:38:14;;;;;;;4.97;3.13;;;10.40;99.90;;;;;;5079977;28;20557;-61
2022/11/11 01:40:45;;;;;;;2.83;1.93;;;10.40;99.90;;;;;;5079027;28;20478;-57
2022/11/11 01:43:24;;;;;;;5.10;2.80;;;10.40;99.90;;;;;;5075099;28;20435;-62
2022/11/11 01:45:56;;;;;;;2.80;2.53;;;10.40;99.90;;;;;;5070487;28;20428;-62
2022/11/11 01:51:28;;;;;;;3.57;2.00;;;10.40;99.90;;;;;;5067173;28;20418;-60
2022/11/11 01:54:00;;;;;;;2.83;2.00;;;10.40;99.90;;;;;;5077805;28;20477;-63
2022/11/11 01:56:27;;;;;;;4.47;2.77;;;10.50;99.90;;;;;;5078531;28;20446;-62
2022/11/11 01:59:04;;;;;;;4.13;2.00;;;10.40;99.90;;;;;;5078189;28;20450;-62
2022/11/11 02:01:31;;;;;;;3.10;2.60;;;10.40;99.90;;;;;;5078256;28;20465;-60
2022/11/11 02:06:47;;;;;;;9.00;3.17;;;10.40;99.90;;;;;;5078062;28;20469;-60
2022/11/11 02:09:14;;;;;;;2.57;1.80;;;10.40;99.90;;;;;;5077113;28;20473;-61
2022/11/11 02:14:35;;;;;;;2.80;2.43;;;10.40;99.90;;;;;;5068078;28;20474;-61
2022/11/11 02:17:04;;;;;;;13.43;4.67;;;10.40;99.90;;;;;;5077525;28;20435;-59
2022/11/11 02:19:41;;;;;;;3.63;2.40;;;10.40;99.90;;;;;;5076690;28;20506;-61
2022/11/11 02:22:13;;;;;;;4.23;2.47;;;10.40;99.90;;;;;;5076979;28;20424;-60
2022/11/11 02:24:48;;;;;;;5.97;1.70;;;10.40;99.90;;;;;;5076523;28;20443;-61
2022/11/11 02:27:17;;;;;;;6.20;2.43;;;10.30;99.90;;;;;;5077103;28;20461;-60
2022/11/11 02:29:47;;;;;;;4.00;2.00;;;10.30;99.90;;;;;;5064273;28;20513;-62
2022/11/11 02:32:14;;;;;;;4.23;2.40;;;10.30;99.90;;;;;;5077397;28;20494;-62
2022/11/11 02:34:44;;;;;;;6.50;2.73;;;10.30;99.90;;;;;;5077471;28;20477;-62
2022/11/11 02:37:12;;;;;;;3.10;1.90;;;10.30;99.90;;;;;;5077386;28;20447;-62
2022/11/11 02:39:45;;;;;;;6.60;2.57;;;10.30;99.90;;;;;;5076523;28;20502;-58
2022/11/11 02:42:16;;;;;;;3.30;2.20;;;10.30;99.90;;;;;;5064780;28;20487;-61
2022/11/11 02:44:45;;;;;;;2.53;1.90;;;10.30;99.90;;;;;;5077077;28;20499;-60
2022/11/11 02:47:12;;;;;;;5.27;2.20;;;10.30;99.90;;;;;;5076767;28;20435;-62
2022/11/11 02:49:39;;;;;;;4.67;2.43;;;10.30;99.90;;;;;;5071858;28;20436;-61
2022/11/11 02:52:10;;;;;;;2.50;2.30;;;10.30;99.90;;;;;;5069142;28;20505;-62
2022/11/11 02:54:38;;;;;;;8.57;2.67;;;10.30;99.90;;;;;;5076739;28;20448;-59
2022/11/11 02:57:07;;;;;;;6.50;2.50;;;10.30;99.90;;;;;;5076604;28;20480;-60
2022/11/11 02:59:34;;;;;;;5.93;3.20;;;10.30;99.90;;;;;;5075549;28;20478;-61
2022/11/11 03:02:01;;;;;;;8.20;2.40;;;10.30;99.90;;;;;;5065936;28;20497;-62
2022/11/11 03:04:28;;;;;;;5.47;1.90;;;10.30;99.90;;;;;;5075894;28;20471;-62
2022/11/11 03:06:55;;;;;;;4.33;1.90;;;10.30;99.90;;;;;;5076500;28;20462;-61
2022/11/11 03:09:21;;;;;;;4.03;2.20;;;10.30;99.90;;;;;;5076207;28;20462;-60
2022/11/11 03:11:52;;;;;;;2.87;1.73;;;10.30;99.90;;;;;;5076336;28;20416;-62
2022/11/11 03:14:20;;;;;;;4.57;2.60;;;10.30;99.90;;;;;;5075973;28;20455;-62
2022/11/11 03:19:33;;;;;;;8.00;2.47;;;10.20;99.90;;;;;;5026106;28;20427;-60
2022/11/11 03:22:02;;;;;;;7.57;3.20;;;10.30;99.90;;;;;;5076239;28;20443;-58
2022/11/11 03:25:36;;;;;;;6.57;2.43;;;10.30;99.90;;;;;;5076741;28;20419;-60
2022/11/11 03:27:15;;;;;;;4.63;2.50;;;10.30;99.90;;;;;;5075747;28;20454;-60
2022/11/11 03:29:44;;;;;;;3.03;2.07;;;10.30;99.90;;;;;;5075502;28;21000;-62
2022/11/11 03:32:11;;;;;;;10.93;3.03;;;10.30;99.90;;;;;;5076661;28;20450;-62
2022/11/11 03:34:41;;;;;;;4.13;2.60;;;10.30;99.90;;;;;;5075742;28;20439;-59
2022/11/11 03:39:54;;;;;;;5.40;2.40;;;10.30;99.90;;;;;;5062453;28;20462;-62
2022/11/11 03:42:21;;;;;;;4.70;2.13;;;10.30;99.90;;;;;;5076221;28;20447;-62
2022/11/11 03:44:49;;;;;;;2.47;2.27;;;10.30;99.90;;;;;;5076860;28;20444;-61
2022/11/11 03:47:16;;;;;;;1.97;1.73;;;10.30;99.90;;;;;;5075934;28;20466;-59
2022/11/11 03:49:44;;;;;;;3.60;2.20;;;10.30;99.90;;;;;;5077018;28;20436;-60
2022/11/11 03:52:13;;;;;;;5.77;4.27;;;10.30;99.90;;;;;;5076553;28;20447;-54
2022/11/11 03:54:39;;;;;;;3.30;2.70;;;10.30;99.90;;;;;;5077083;28;20459;-61
2022/11/11 03:59:56;;;;;;;4.53;2.00;;;10.20;99.90;;;;;;5077579;28;20409;-61
2022/11/11 04:10:37;;;;;;;10.00;2.37;;;10.30;99.90;;;;;;5066903;28;20833;-61
2022/11/11 04:16:06;;;;;;;3.23;2.50;;;10.20;99.90;;;;;;5076794;28;20407;-61
2022/11/11 04:25:47;;;;;;;3.47;2.70;;;10.20;99.90;;;;;;5075580;28;20430;-64
2022/11/11 04:26:50;;;;;;;5.20;2.53;;;10.20;99.90;;;;;;5074378;28;20450;-57
2022/11/11 04:29:29;;;;;;;6.97;3.13;;;10.20;99.90;;;;;;5074889;28;20447;-61
2022/11/11 04:34:53;;;;;;;4.20;2.50;;;10.20;99.90;;;;;;5076211;28;20441;-64
2022/11/11 04:37:22;;;;;;;10.27;2.77;;;10.20;99.90;;;;;;5075756;28;20455;-62
2022/11/11 04:42:38;;;;;;;4.47;2.57;;;10.20;99.90;;;;;;5063065;28;20410;-59
2022/11/11 04:47:57;;;;;;;7.70;2.57;;;10.20;99.90;;;;;;5075801;28;20407;-63
2022/11/11 04:50:27;;;;;;;5.80;3.30;;;10.10;99.90;;;;;;5080442;28;20467;-62
2022/11/11 04:52:54;;;;;;;3.23;2.13;;;10.10;99.90;;;;;;5080169;28;20461;-65
2022/11/11 04:58:06;;;;;;;7.43;2.20;;;10.10;99.90;;;;;;5080181;28;20422;-61
2022/11/11 05:00:33;;;;;;;3.83;2.43;;;10.10;99.90;;;;;;5080168;28;20479;-66
2022/11/11 05:03:17;;;;;;;4.90;3.57;;;10.00;99.90;;;;;;5078963;28;20471;-61
2022/11/11 05:11:16;;;;;;;5.90;2.60;;;10.00;99.90;;;;;;5079338;28;20410;-63
2022/11/11 05:22:09;;;;;;;7.40;2.47;;;10.00;99.90;;;;;;5078277;28;20550;-60
2022/11/11 05:27:20;;;;;;;4.80;2.27;;;10.00;99.90;;;;;;5078876;28;20493;-60
2022/11/11 05:29:48;;;;;;;8.13;2.50;;;10.00;99.90;;;;;;5078417;28;20482;-62
2022/11/11 05:32:18;;;;;;;12.60;2.90;;;10.00;99.90;;;;;;5077662;28;20435;-62
2022/11/11 05:34:50;;;;;;;4.60;2.47;;;10.00;99.90;;;;;;5077750;28;20486;-61
2022/11/11 05:37:17;;;;;;;3.03;2.70;;;10.00;99.90;;;;;;5079049;28;20420;-54
2022/11/11 05:39:45;;;;;;;5.70;3.00;;;10.00;99.90;;;;;;5079270;28;20505;-59
2022/11/11 05:42:12;;;;;;;5.80;2.73;;;10.00;99.90;;;;;;5078369;28;20471;-61
2022/11/11 05:44:39;;;;;;;6.43;3.13;;;10.00;99.90;;;;;;5078190;28;20443;-62
2022/11/11 05:47:06;;;;;;;3.60;3.27;;;10.00;99.90;;;;;;5078076;28;20493;-61
2022/11/11 05:49:33;;;;;;;2.90;2.00;;;10.10;99.90;;;;;;5078248;28;20420;-58
2022/11/11 05:52:02;;;;;;;7.83;2.83;;;10.10;99.90;;;;;;5077535;28;20467;-62
2022/11/11 05:54:29;;;;;;;4.90;3.00;;;10.00;99.90;;;;;;5077918;28;20447;-62
2022/11/11 05:56:56;;;;;;;2.70;1.93;;;10.00;99.90;;;;;;5078512;28;20436;-60
2022/11/11 05:59:23;;;;;;;2.10;1.70;;;10.00;99.90;;;;;;5077284;28;20471;-61
2022/11/11 06:01:50;;;;;;;10.10;2.73;;;10.00;99.90;;;;;;5077144;28;20479;-62
2022/11/11 06:04:17;;;;;;;7.00;3.10;;;9.90;99.90;;;;;;5077959;28;20431;-59
2022/11/11 06:06:44;;;;;;;3.10;2.50;;;9.90;99.90;;;;;;5077804;28;20443;-62
2022/11/11 06:09:12;;;;;;;3.77;2.37;;;9.90;99.90;;;;;;5077114;28;20474;-62
2022/11/11 06:11:39;;;;;;;7.83;2.57;;;9.90;99.90;;;;;;5076975;28;20482;-61
2022/11/11 06:14:06;;;;;;;3.70;2.87;;;9.90;99.90;;;;;;5077313;28;20446;-56
2022/11/11 06:16:33;;;;;;;3.83;2.40;;;9.90;99.90;;;;;;5077367;28;20446;-61
2022/11/11 06:19:03;;;;;;;2.70;1.70;;;9.90;99.90;;;;;;5069037;28;20439;-63
2022/11/11 06:21:30;;;;;;;4.83;2.63;;;9.90;99.90;;;;;;5074513;28;20786;-60
2022/11/11 06:23:57;;;;;;;2.33;2.13;;;10.00;99.90;;;;;;5065392;28;20473;-60
2022/11/11 06:26:24;;;;;;;6.57;3.00;;;9.90;99.90;;;;;;5067822;28;20447;-59
2022/11/11 06:28:54;;;;;;;5.53;2.50;;;10.00;99.90;;;;;;5077271;28;20451;-60
2022/11/11 06:31:23;;;;;;;4.40;2.13;;;10.00;99.90;;;;;;5077764;28;20428;-52
2022/11/11 06:33:50;;;;;;;9.40;3.50;;;10.00;99.90;;;;;;5077501;28;20439;-54
2022/11/11 06:36:19;;;;;;;7.10;2.20;;;9.90;99.90;;;;;;5073695;28;20463;-56
2022/11/11 06:38:46;;;;;;;4.93;2.83;;;9.90;99.90;;;;;;5068157;28;20466;-58
2022/11/11 06:41:14;;;;;;;4.30;2.47;;;9.90;99.90;;;;;;5076493;28;20483;-59
2022/11/11 06:43:46;;;;;;;5.40;3.57;;;9.90;99.90;;;;;;5076711;28;20472;-52
2022/11/11 06:46:20;;;;;;;4.17;2.43;;;9.90;99.90;;;;;;5076768;28;20435;-63
2022/11/11 06:48:47;;;;;;;8.90;3.10;;;10.00;99.90;;;;;;5076284;28;20448;-54
2022/11/11 06:51:14;;;;;;;5.33;2.50;;;10.00;99.90;;;;;;5076307;28;20447;-56
2022/11/11 06:53:41;;;;;;;3.73;2.50;;;10.00;99.90;;;;;;5063495;28;20768;-52
2022/11/11 06:56:08;;;;;;;7.20;3.13;;;10.10;99.90;;;;;;5075578;28;20467;-56
2022/11/11 06:58:35;;;;;;;7.70;4.17;;;10.10;99.90;;;;;;5063694;28;20478;-56
2022/11/11 07:01:06;;;;;;;14.77;5.30;;;10.10;99.90;;;;;;5067394;28;20515;-55
2022/11/11 07:03:33;;;;;;;5.70;3.50;;;10.10;99.90;;;;;;5073010;28;20439;-55
2022/11/11 07:06:01;;;;;;;9.17;3.40;;;10.20;99.90;;;;;;5076124;28;20419;-52
2022/11/11 07:08:28;;;;;;;4.30;3.20;;;10.20;99.90;;;;;;5063099;28;20467;-56
2022/11/11 07:10:55;;;;;;;8.67;3.00;;;10.20;99.90;;;;;;5075381;28;20465;-54
2022/11/11 07:13:22;;;;;;;6.00;2.63;;;10.30;99.90;;;;;;5075318;28;20447;-54
2022/11/11 07:15:49;;;;;;;7.57;3.43;;;10.30;99.90;;;;;;5075803;28;20442;-49
2022/11/11 07:18:19;;;;;;;3.70;2.10;;;10.40;99.90;;;;;;5067997;28;20447;-54
2022/11/11 07:20:46;;;;;;;7.00;2.30;;;10.30;99.90;;;;;;5071307;28;20486;-55
2022/11/11 07:23:12;;;;;;;6.13;2.83;;;10.40;99.90;;;;;;5076589;28;20427;-54
2022/11/11 07:25:41;;;;;;;5.60;2.77;;;10.40;99.90;;;;;;5076166;28;20427;-55
2022/11/11 07:28:08;;;;;;;6.43;2.33;;;10.40;99.90;;;;;;5075328;28;20475;-56
2022/11/11 07:30:38;;;;;;;5.13;2.10;;;10.40;99.90;;;;;;5076118;28;20450;-59
2022/11/11 07:33:05;;;;;;;3.63;2.10;;;10.40;99.90;;;;;;5075657;28;20470;-55
2022/11/11 07:35:33;;;;;;;6.63;2.60;;;10.50;99.90;;;;;;5068672;28;20431;-54
2022/11/11 07:38:00;;;;;;;4.30;2.20;;;10.50;99.90;;;;;;5070350;28;20443;-51
2022/11/11 07:40:27;;;;;;;7.17;3.60;;;10.50;99.90;;;;;;5075425;28;20456;-50
2022/11/11 07:42:54;;;;;;;6.00;2.60;;;10.60;99.90;;;;;;5075865;28;20483;-55
2022/11/11 07:45:22;;;;;;;5.27;2.90;;;10.60;99.90;;;;;;5075309;28;20447;-57
2022/11/11 07:47:51;;;;;;;7.20;3.07;;;10.60;99.90;;;;;;5075339;28;20427;-53
2022/11/11 07:50:18;;;;;;;3.13;2.47;;;10.60;99.90;;;;;;5074975;28;20478;-54
2022/11/11 07:52:51;;;;;;;2.50;2.30;;;10.70;99.90;;;;;;5075374;28;20478;-55
2022/11/11 07:55:18;;;;;;;2.50;2.17;;;10.70;99.90;;;;;;5074970;28;20570;-50
2022/11/11 07:57:45;;;;;;;5.40;2.97;;;10.70;99.90;;;;;;5074643;28;20494;-49
2022/11/11 08:00:13;;;;;;;6.33;2.67;;;10.70;99.90;;;;;;5074920;28;20423;-49
2022/11/11 08:02:40;;;;;;;5.30;2.70;;;10.70;99.90;;;;;;5074745;28;20499;-50
2022/11/11 08:05:08;;;;;;;4.63;2.70;;;10.70;99.90;;;;;;5061886;28;20494;-55
2022/11/11 08:07:36;;;;;;;7.57;2.80;;;10.70;99.90;;;;;;5075370;28;20969;-52
2022/11/11 08:10:08;;;;;;;6.20;2.30;;;10.70;99.90;;;;;;5068700;28;20458;-54
2022/11/11 08:15:24;;;;;;;6.70;2.53;;;10.80;99.90;;;;;;5075045;28;20426;-51
2022/11/11 08:17:51;;;;;;;5.57;3.00;;;10.90;99.90;;;;;;5074444;28;20472;-53
2022/11/11 08:20:18;;;;;;;5.60;3.17;;;10.90;99.90;;;;;;5075247;28;20474;-53
2022/11/11 08:22:45;;;;;;;9.00;2.60;;;11.00;99.90;;;;;;5075162;28;20915;-55
2022/11/11 08:25:15;;;;;;;6.80;2.60;;;11.00;99.90;;;;;;5075772;28;20865;-51
2022/11/11 08:27:42;;;;;;;10.40;3.13;;;11.00;99.90;;;;;;5075630;28;20530;-55
2022/11/11 08:30:11;;;;;;;4.63;2.40;;;11.00;99.90;;;;;;5075802;28;20463;-58
2022/11/11 08:32:37;;;;;;;11.57;4.87;;;11.10;99.90;;;;;;5075374;28;20447;-51
2022/11/11 08:35:05;;;;;;;23.30;12.53;;;11.10;99.90;;;;;;5075227;28;20463;-55
2022/11/11 08:37:32;;;;;;;6.90;3.67;;;11.10;99.90;;;;;;5075175;28;20458;-55
2022/11/11 08:39:59;;;;;;;5.90;3.07;;;11.20;99.90;;;;;;5075502;28;20426;-53
2022/11/11 08:42:27;;;;;;;4.83;4.03;;;11.40;99.90;;;;;;5075779;28;20479;-54
2022/11/11 08:44:54;;;;;;;3.10;2.40;;;11.50;99.90;;;;;;5075504;28;20462;-44
2022/11/11 08:47:23;;;;;;;4.17;2.53;;;11.50;99.90;;;;;;5075697;28;20447;-59
2022/11/11 08:49:50;;;;;;;6.50;3.00;;;11.60;99.90;;;;;;5075232;28;20428;-53
2022/11/11 08:52:17;;;;;;;6.63;2.33;;;11.70;99.90;;;;;;5074894;28;20439;-52
2022/11/11 08:54:44;;;;;;;7.93;2.60;;;11.80;99.90;;;;;;5074681;28;20487;-56
2022/11/11 08:57:11;;;;;;;5.90;1.90;;;11.90;99.90;;;;;;5064379;28;20443;-55
2022/11/11 08:59:39;;;;;;;3.20;2.17;;;12.00;99.90;;;;;;5074175;28;20439;-52
2022/11/11 09:02:09;;;;;;;8.90;4.07;;;12.10;99.90;;;;;;5074400;28;20486;-55
2022/11/11 09:04:38;;;;;;;3.83;2.13;;;12.20;99.90;;;;;;5064593;28;20523;-54
2022/11/11 09:07:05;;;;;;;3.57;2.33;;;12.30;99.90;;;;;;5074842;28;20462;-54
2022/11/11 09:09:32;;;;;;;4.53;2.67;;;12.40;99.90;;;;;;5075342;28;20443;-48
2022/11/11 09:11:59;;;;;;;7.30;2.20;;;12.50;99.90;;;;;;5075013;28;20443;-57
2022/11/11 09:14:26;;;;;;;3.83;2.70;;;12.60;99.90;;;;;;5075599;28;20435;-49
2022/11/11 09:16:54;;;;;;;4.80;2.80;;;12.70;99.90;;;;;;5068371;28;20439;-49
2022/11/11 09:19:23;;;;;;;5.03;2.77;;;12.80;99.90;;;;;;5075181;28;20467;-50
2022/11/11 09:21:51;;;;;;;3.40;3.03;;;13.00;99.90;;;;;;5075198;28;20489;-51
2022/11/11 09:24:18;;;;;;;5.70;2.77;;;13.20;99.90;;;;;;5066824;28;20449;-52
2022/11/11 09:26:48;;;;;;;5.37;1.90;;;13.50;99.90;;;;;;5075577;28;20415;-49
2022/11/11 09:29:15;;;;;;;5.93;2.70;;;14.00;99.90;;;;;;5064960;28;20853;-51
2022/11/11 09:31:42;;;;;;;3.40;1.90;;;14.40;99.90;;;;;;5069493;28;20510;-50
2022/11/11 09:34:10;;;;;;;6.93;2.30;;;14.70;99.90;;;;;;5076276;28;20443;-54
2022/11/11 09:36:37;;;;;;;7.93;3.57;;;14.80;99.90;;;;;;5078914;28;20443;-47
2022/11/11 09:39:04;;;;;;;5.80;2.90;;;14.60;99.90;;;;;;5078384;28;20415;-54
2022/11/11 09:41:41;;;;;;;4.23;2.53;;;14.50;99.90;;;;;;5078740;28;20490;-50
2022/11/11 09:44:23;;;;;;;5.60;2.17;;;14.30;99.90;;;;;;5076009;28;20455;-52
2022/11/11 09:46:58;;;;;;;6.80;3.50;;;14.20;99.90;;;;;;5067600;28;20522;-55
2022/11/11 09:49:47;;;;;;;8.00;2.33;;;14.10;99.90;;;;;;5078953;28;20529;-55
2022/11/11 09:52:19;;;;;;;3.47;2.60;;;13.90;99.90;;;;;;5079447;28;20442;-50
2022/11/11 09:54:52;;;;;;;7.27;3.20;;;13.80;99.90;;;;;;5078890;28;20439;-52
2022/11/11 09:57:28;;;;;;;2.70;1.50;;;13.70;99.90;;;;;;5078094;28;20414;-53
2022/11/11 09:59:59;;;;;;;4.47;2.43;;;13.50;99.90;;;;;;5079061;28;20453;-51
2022/11/11 10:02:34;;;;;;;5.23;1.93;;;13.50;99.90;;;;;;5077978;28;20491;-54
2022/11/11 10:05:08;;;;;;;5.60;2.00;;;13.40;99.90;;;;;;5078146;28;20427;-47
2022/11/11 10:07:45;;;;;;;2.00;1.60;;;13.30;99.90;;;;;;5078310;28;20507;-50
2022/11/11 10:10:19;;;;;;;2.00;1.63;;;13.30;99.90;;;;;;5078685;28;20443;-54
2022/11/11 10:12:51;;;;;;;3.83;2.13;;;13.30;99.90;;;;;;5068319;28;20428;-56
2022/11/11 10:15:18;;;;;;;4.90;2.20;;;13.30;99.90;;;;;;5077533;28;20426;-51
2022/11/11 10:17:56;;;;;;;3.50;2.60;;;13.30;99.90;;;;;;5078735;28;20648;-50
2022/11/11 10:20:28;;;;;;;16.03;3.87;;;13.30;99.90;;;;;;5078731;28;20486;-51
2022/11/11 10:23:01;;;;;;;3.30;1.67;;;13.40;99.90;;;;;;5078275;28;20463;-52
2022/11/11 10:25:29;;;;;;;1.90;1.70;;;13.40;99.90;;;;;;5077832;28;20479;-56
2022/11/11 10:27:59;;;;;;;5.07;2.50;;;13.40;99.90;;;;;;5078211;28;20451;-52
2022/11/11 10:30:28;;;;;;;4.43;2.57;;;13.40;99.90;;;;;;5077839;28;20458;-50
2022/11/11 10:33:00;;;;;;;2.87;1.90;;;13.50;99.90;;;;;;5078180;28;20467;-55
2022/11/11 10:35:30;;;;;;;3.70;2.00;;;13.50;99.90;;;;;;5078118;28;20423;-51
2022/11/11 10:38:06;;;;;;;2.27;1.93;;;13.60;99.90;;;;;;5078233;28;20424;-53
2022/11/11 10:40:39;;;;;;;7.37;2.00;;;13.70;99.90;;;;;;5078339;28;20447;-48
2022/11/11 10:43:18;;;;;;;4.73;2.70;;;13.70;99.90;;;;;;5075712;28;20562;-60
2022/11/11 10:45:50;;;;;;;4.40;2.17;;;13.80;99.90;;;;;;5068971;28;20490;-54
2022/11/11 10:48:23;;;;;;;3.80;1.93;;;13.90;99.90;;;;;;5078314;28;20420;-55
2022/11/11 10:50:55;;;;;;;2.17;1.73;;;13.90;99.90;;;;;;5078043;28;20459;-47
2022/11/11 10:53:32;;;;;;;4.50;2.10;;;14.00;99.90;;;;;;5078346;28;20446;-46
2022/11/11 10:56:06;;;;;;;25.60;12.87;;;14.00;99.90;;;;;;5063268;28;20514;-54
2022/11/11 10:58:41;;;;;;;8.33;3.00;;;14.00;99.90;;;;;;5067637;28;20462;-50
2022/11/11 11:01:12;;;;;;;9.80;2.27;;;14.00;99.90;;;;;;5076786;28;20461;-46
2022/11/11 11:03:43;;;;;;;1.80;1.70;;;14.10;99.90;;;;;;5063539;28;20478;-48
2022/11/11 11:06:17;;;;;;;2.77;1.90;;;14.10;99.90;;;;;;5076851;28;20415;-51
2022/11/11 11:08:49;;;;;;;6.03;2.00;;;14.10;99.90;;;;;;5077090;28;20414;-51
2022/11/11 11:11:21;;;;;;;3.87;2.10;;;14.20;99.90;;;;;;5077406;28;20420;-50
2022/11/11 11:14:08;;;;;;;8.80;2.40;;;14.20;99.90;;;;;;5075982;28;20423;-51
2022/11/11 11:16:43;;;;;;;2.63;1.90;;;14.10;99.90;;;;;;5076298;28;20502;-54
2022/11/11 11:19:20;;;;;;;6.20;2.10;;;14.10;99.90;;;;;;5075737;28;20415;-56
2022/11/11 11:21:54;;;;;;;2.80;2.00;;;14.10;99.90;;;;;;5075864;28;20447;-52
2022/11/11 11:24:26;;;;;;;4.23;2.03;;;14.10;99.90;;;;;;5076538;28;20491;-50
2022/11/11 11:26:55;;;;;;;2.20;2.00;;;14.10;99.90;;;;;;5077196;28;20427;-53
2022/11/11 11:29:29;;;;;;;5.00;2.30;;;14.10;99.90;;;;;;5076372;28;20461;-54
2022/11/11 11:32:10;;;;;;;3.87;2.00;;;14.10;99.90;;;;;;5075430;28;20437;-55
2022/11/11 11:34:47;;;;;;;6.00;2.27;;;14.10;99.90;;;;;;5076841;28;20469;-50
2022/11/11 11:37:16;;;;;;;2.57;1.60;;;14.00;99.90;;;;;;5062773;28;20493;-54
2022/11/11 11:39:46;;;;;;;3.20;2.20;;;14.00;99.90;;;;;;5075986;28;20450;-55
2022/11/11 11:42:31;;;;;;;2.17;1.93;;;14.00;99.90;;;;;;5075600;28;20511;-47
2022/11/11 11:44:58;;;;;;;2.03;1.80;;;14.00;99.90;;;;;;5075569;28;20443;-54
2022/11/11 11:47:42;;;;;;;5.60;2.00;;;14.00;99.90;;;;;;5075511;28;20482;-53
2022/11/11 11:50:24;;;;;;;3.97;2.40;;;14.00;99.90;;;;;;5077007;28;20416;-53
2022/11/11 11:53:07;;;;;;;4.60;2.10;;;14.00;99.90;;;;;;5076646;28;20474;-54
2022/11/11 11:55:40;;;;;;;11.87;7.27;;;14.10;99.90;;;;;;5077013;28;20447;-52
2022/11/11 11:58:22;;;;;;;5.53;3.30;;;14.10;99.90;;;;;;5074743;28;20424;-54
2022/11/11 12:01:01;;;;;;;6.67;2.03;;;14.10;99.90;;;;;;5061488;28;20439;-57
2022/11/11 12:03:52;;;;;;;4.70;1.73;;;14.10;99.90;;;;;;5076158;28;20459;-54
2022/11/11 12:06:26;;;;;;;6.30;2.20;;;14.10;99.90;;;;;;5075047;28;20956;-54
2022/11/11 12:09:06;;;;;;;3.50;1.40;;;14.20;99.90;;;;;;5075201;28;20427;-55
2022/11/11 12:11:39;;;;;;;5.87;2.70;;;14.20;99.90;;;;;;5076316;28;20463;-50
2022/11/11 12:14:36;;;;;;;3.63;2.47;;;14.20;99.90;;;;;;5076017;28;20426;-52
2022/11/11 12:17:30;;;;;;;3.40;1.90;;;14.20;99.90;;;;;;5075799;28;20507;-50
2022/11/11 12:20:08;;;;;;;3.10;1.87;;;14.20;99.90;;;;;;5076075;28;20443;-50
2022/11/11 12:22:47;;;;;;;5.60;2.70;;;14.20;99.90;;;;;;5076497;28;20463;-50
2022/11/11 12:25:23;;;;;;;4.17;2.40;;;14.20;99.90;;;;;;5069909;28;20439;-51
2022/11/11 12:28:05;;;;;;;4.40;2.80;;;14.20;99.90;;;;;;5069874;28;20446;-51
2022/11/11 12:30:35;;;;;;;3.20;2.07;;;14.20;99.90;;;;;;5074610;28;20573;-52
2022/11/11 12:33:20;;;;;;;2.87;2.23;;;14.20;99.90;;;;;;5074243;28;20420;-50
2022/11/11 12:36:05;;;;;;;11.77;2.93;;;14.20;99.90;;;;;;5069202;28;20459;-51
2022/11/11 12:38:50;;;;;;;2.33;1.60;;;14.20;99.90;;;;;;5070035;28;20458;-49
2022/11/11 12:41:36;;;;;;;3.63;2.17;;;14.10;99.90;;;;;;5066310;28;20423;-50
2022/11/11 12:44:06;;;;;;;2.57;1.60;;;14.00;99.90;;;;;;5076059;28;20467;-48
2022/11/11 12:46:50;;;;;;;3.83;2.10;;;14.10;99.90;;;;;;5075062;28;20881;-55
2022/11/11 12:49:43;;;;;;;3.33;1.50;;;14.20;99.90;;;;;;5075798;28;20486;-53
2022/11/11 12:52:26;;;;;;;3.03;1.93;;;14.10;99.90;;;;;;5075400;28;20420;-50
2022/11/11 12:55:09;;;;;;;3.93;2.00;;;14.20;99.90;;;;;;5075918;28;20514;-58
2022/11/11 12:57:51;;;;;;;5.50;2.67;;;14.20;99.90;;;;;;5074967;28;20423;-48
2022/11/11 13:00:24;;;;;;;4.70;2.13;;;14.20;99.90;;;;;;5074955;28;20467;-47
2022/11/11 13:03:29;;;;;;;4.13;2.57;;;14.30;99.90;;;;;;5074926;28;20502;-52
2022/11/11 13:06:05;;;;;;;4.30;2.90;;;14.30;99.90;;;;;;5071906;28;20443;-46
2022/11/11 13:08:55;;;;;;;2.73;1.67;;;14.20;99.90;;;;;;5074649;28;20411;-47
2022/11/11 13:11:33;;;;;;;5.33;1.90;;;14.20;99.90;;;;;;5068839;28;20427;-46
2022/11/11 13:14:24;;;;;;;5.10;2.10;;;14.20;99.90;;;;;;5073328;28;20443;-46
2022/11/11 13:16:52;;;;;;;5.23;2.60;;;14.30;99.90;;;;;;5079872;28;20427;-45
2022/11/11 13:19:23;;;;;;;5.93;2.10;;;14.30;99.90;;;;;;5078668;28;20473;-47
2022/11/11 13:21:55;;;;;;;3.87;2.07;;;14.20;99.90;;;;;;5079897;28;20466;-56
2022/11/11 13:24:24;;;;;;;3.37;2.20;;;14.20;99.90;;;;;;5079758;28;20446;-47
2022/11/11 13:26:57;;;;;;;6.33;3.00;;;14.20;99.90;;;;;;5079051;28;20443;-48
2022/11/11 13:29:58;;;;;;;9.73;7.30;;;14.20;99.90;;;;;;5078302;28;20490;-49
2022/11/11 13:32:39;;;;;;;5.00;3.00;;;14.20;99.90;;;;;;5079352;28;20467;-47
2022/11/11 13:35:20;;;;;;;4.10;2.30;;;14.30;99.90;;;;;;5077959;28;20483;-49
2022/11/11 13:37:47;;;;;;;3.13;2.03;;;14.20;99.90;;;;;;5078314;28;20482;-52
2022/11/11 13:40:32;;;;;;;2.73;2.07;;;14.20;99.90;;;;;;5077520;28;20439;-47
2022/11/11 13:43:03;;;;;;;9.30;1.60;;;14.20;99.90;;;;;;5077808;28;20463;-50
2022/11/11 13:45:40;;;;;;;1.87;1.73;;;14.20;99.90;;;;;;5079251;28;20443;-53
2022/11/11 13:48:17;;;;;;;4.80;1.60;;;14.10;99.90;;;;;;5078556;28;20434;-58
2022/11/11 13:50:45;;;;;;;2.90;1.53;;;14.10;99.90;;;;;;5062296;28;20466;-46
2022/11/11 13:53:24;;;;;;;2.30;1.73;;;14.10;99.90;;;;;;5077720;28;20446;-48
2022/11/11 13:55:54;;;;;;;3.97;1.60;;;14.10;99.90;;;;;;5078415;28;20479;-51
2022/11/11 13:58:24;;;;;;;1.93;1.70;;;14.10;99.90;;;;;;5078169;28;20432;-52
2022/11/11 14:01:02;;;;;;;5.50;1.83;;;14.00;99.90;;;;;;5077399;28;20431;-54
2022/11/11 14:03:35;;;;;;;3.00;1.93;;;13.90;99.90;;;;;;5076872;28;20459;-54
2022/11/11 14:06:48;;;;;;;6.23;3.03;;;14.00;99.90;;;;;;5077129;28;20436;-51
2022/11/11 14:09:49;;;;;;;4.20;2.63;;;14.00;99.90;;;;;;5077964;28;20452;-52
2022/11/11 14:12:37;;;;;;;5.50;2.60;;;14.00;99.90;;;;;;5078298;28;20494;-53
2022/11/11 14:15:07;;;;;;;2.67;1.87;;;14.00;99.90;;;;;;5076983;28;20513;-52
2022/11/11 14:17:44;;;;;;;6.37;2.40;;;13.90;99.90;;;;;;5078292;28;20424;-49
2022/11/11 14:20:34;;;;;;;4.57;1.70;;;13.90;99.90;;;;;;5078003;28;20431;-52
2022/11/11 14:23:22;;;;;;;7.20;2.60;;;13.80;99.90;;;;;;5077918;28;20447;-50
2022/11/11 14:25:51;;;;;;;11.37;2.83;;;13.80;99.90;;;;;;5076648;28;20443;-54
2022/11/11 14:28:29;;;;;;;2.50;2.00;;;13.80;99.90;;;;;;5077607;28;20466;-48
2022/11/11 14:31:19;;;;;;;6.03;2.10;;;13.70;99.90;;;;;;5076534;28;20474;-53